Campanya meteocatpedra

Dades EMA Sant Pau de Segúries

?
?
Resum diari 22:30 TU
Dades diàries de l'estació meteorològica
Temperatura mitjana 17.4 °C
Temperatura màxima 26.2 °C 12:03 TU
Temperatura mínima 7.7 °C 4:46 TU
Humitat relativa mitjana 74%
Precipitació acumulada 0.0 mm
Ratxa màxima del vent (10 m) 20.2 km/h - 111º 14:53 TU
Pressió atmosfèrica mitjana 1019.1 hPa

El tram horari està expressat en Temps Universal (TU). Cal sumar una hora en horari d'hivern i dues en horari d'estiu per passar a l'hora oficial.

Sant Pau de Segúries

Metadades estació meteorol´gica
Municipi Sant Pau de Segúries
Comarca Ripollès
Altitud 852 m
Data alta 24.11.1995
Estat actual Operativa
Dades de període
Període
TU
TM
°C
TX
°C
TN
°C
HRM
%
PPT
mm
VVM (10 m)
km/h
DVM (10 m)
graus
VVX (10 m)
km/h
PM
hPa
00:00 - 00:30 9.4 9.6 9.2 98 0.0 1.1 193 2.5 1023.4
00:30 - 01:00 9.1 9.4 8.8 98 0.0 0.4 208 2.5 1023.4
01:00 - 01:30 8.9 9.2 8.6 98 0.0 1.1 208 3.2 1023.5
01:30 - 02:00 8.5 8.7 8.3 99 0.0 0.4 190 3.2 1023.7
02:00 - 02:30 8.6 8.7 8.4 99 0.0 0.7 169 3.6 1023.6
02:30 - 03:00 8.5 8.8 8.3 99 0.0 0.7 181 4.0 1023.5
03:00 - 03:30 8.3 8.5 8.1 99 0.0 0.4 144 4.0 1023.4
03:30 - 04:00 8.2 8.3 8.0 99 0.0 0.7 214 2.9 1023.4
04:00 - 04:30 7.9 8.1 7.7 99 0.0 0.7 206 3.2 1023.7
04:30 - 05:00 7.9 8.1 7.7 99 0.0 1.1 198 3.6 1023.8
05:00 - 05:30 8.8 9.6 8.1 99 0.0 1.8 219 5.4 1023.5
05:30 - 06:00 10.6 11.5 9.6 98 0.0 3.2 245 6.8 1022.9
06:00 - 06:30 12.5 13.7 11.5 92 0.0 3.2 246 6.1 1022.1
06:30 - 07:00 14.8 16.0 13.7 83 0.0 3.2 239 7.9 1021.3
07:00 - 07:30 16.6 17.6 15.7 76 0.0 2.2 222 5.8 1020.5
07:30 - 08:00 18.9 20.2 17.4 68 0.0 1.4 225 4.3 1019.6
08:00 - 08:30 21.7 22.6 20.4 56 0.0 1.8 253 5.0 1018.6
08:30 - 09:00 22.9 23.3 22.6 50 0.0 2.9 58 7.6 1018.0
09:00 - 09:30 22.9 23.5 22.5 50 0.0 4.7 96 11.9 1017.9
09:30 - 10:00 23.1 23.6 22.5 50 0.0 4.3 91 13.3 1017.7
10:00 - 10:30 23.4 24.3 22.9 52 0.0 5.0 131 12.6 1017.3
10:30 - 11:00 23.8 24.3 23.4 52 0.0 5.4 115 15.5 1017.1
11:00 - 11:30 24.6 25.1 23.8 50 0.0 3.6 108 10.4 1016.5
11:30 - 12:00 24.7 25.5 24.4 50 0.0 4.7 169 11.9 1016.2
12:00 - 12:30 24.7 26.2 23.6 49 0.0 4.0 201 13.3 1016.1
12:30 - 13:00 25.6 26.2 24.8 47 0.0 4.3 117 14.0 1015.6
13:00 - 13:30 25.3 26.2 24.8 46 0.0 5.0 114 17.3 1015.6
13:30 - 14:00 24.8 25.4 24.3 47 0.0 5.4 123 16.2 1015.8
14:00 - 14:30 24.9 25.7 23.7 46 0.0 6.1 94 16.9 1015.6
14:30 - 15:00 23.9 24.4 23.1 51 0.0 7.9 103 20.2 1015.9
15:00 - 15:30 24.1 24.7 23.6 51 0.0 5.4 107 18.7 1015.7
15:30 - 16:00 24.0 24.3 23.4 51 0.0 4.0 115 11.5 1015.5
16:00 - 16:30 23.9 24.1 23.7 52 0.0 5.0 95 13.7 1015.3
16:30 - 17:00 23.6 23.9 23.2 53 0.0 4.7 95 15.1 1015.3
17:00 - 17:30 23.0 23.2 22.8 55 0.0 3.6 96 10.1 1015.6
17:30 - 18:00 22.1 22.9 21.2 60 0.0 2.2 115 6.5 1015.8
18:00 - 18:30 20.0 21.2 18.8 74 0.0 0.4 195 2.9 1016.6
18:30 - 19:00 18.0 18.7 17.3 82 0.0 0.7 134 3.6 1017.4
19:00 - 19:30 17.3 17.9 17.0 83 0.0 1.4 57 6.1 1017.9
19:30 - 20:00 16.6 17.2 16.1 84 0.0 2.2 96 6.1 1018.3
20:00 - 20:30 15.3 16.2 14.6 89 0.0 0.7 161 2.9 1018.9
20:30 - 21:00 14.1 14.5 13.7 92 0.0 0.7 188 3.2 1019.7
21:00 - 21:30 13.4 13.6 13.1 94 0.0 0.7 185 3.2 1019.9
21:30 - 22:00 13.1 13.4 12.8 95 0.0 0.7 178 4.3 1019.8
22:00 - 22:30 12.5 12.8 12.1 96 0.0 0.7 212 2.9 1019.9
22:30 - 23:00 (s/d) (s/d) (s/d) (s/d) (s/d) (s/d) (s/d) (s/d) (s/d)
23:00 - 23:30 (s/d) (s/d) (s/d) (s/d) (s/d) (s/d) (s/d) (s/d) (s/d)

Les dades en taronja només han passat un control de qualitat automàtic. Resta pendent la seva validació definitiva.